KLFT/LFT METAR and TAF weather

Enter ICAO airport designator
Station Type Date Time Source
KLFT METAR 2021/03/02 15:53 UTC NOAA

KLFT 021553Z 02010KT 10SM OVC008 09/07 A3018 RMK AO2 RAE06 CIG 006V012 SLP218 P0001 T00940072


Station Type Date Time Source
KLFT Decoded METAR 2021/03/02 15:53 UTC NOAA

LAFAYETTE REGIONAL AIRPORT, LA, United States (KLFT) 30-12N 092-00W 11M
Mar 02, 2021 - 10:53 AM EST / 2021.03.02 1553 UTC
Wind: from the NNE (020 degrees) at 12 MPH (10 KT):0
Visibility: 10 mile(s):0
Sky conditions: overcast
Precipitation last hour: 0.01 inches
Temperature: 48.9 F (9.4 C)
Dew Point: 45.0 F (7.2 C)
Relative Humidity: 86%
Pressure (altimeter): 30.18 in. Hg (1022 hPa)
ob: KLFT 021553Z 02010KT 10SM OVC008 09/07 A3018 RMK AO2 RAE06 CIG 006V012 SLP218 P0001 T00940072
cycle: 16

Station Type Date Time Source
KLFT TAF 2021/03/02 12:22 UTC NOAA

TAF KLFT 021120Z 0212/0312 02011KT P6SM VCSH OVC008
TEMPO 0212/0216 4SM -RA BR SCT008 OVC015
FM021600 36015G23KT P6SM OVC015
FM030000 36011KT P6SM OVC035
FM030400 36008KT P6SM SKC

Example: see airport list